KLCK/LCK METAR and TAF weather

Enter ICAO airport designator
Station Type Date Time Source
KLCK METAR 2019/04/24 16:15 UTC NOAA

KLCK 241615Z AUTO RMK AO2 PWINO TSNO


Station Type Date Time Source
KLCK Decoded METAR 2019/04/24 16:15 UTC NOAA

Rickenbacker Air National Guard Base, OH, United States (KLCK) 39-49N 082-56W
Apr 24, 2019 - 12:15 PM EDT / 2019.04.24 1615 UTC
ob: KLCK 241615Z AUTO RMK AO2 PWINO TSNO
cycle: 16

Station Type Date Time Source
KLCK TAF 2019/04/24 12:39 UTC NOAA

TAF KLCK 241131Z 2412/2512 32004KT P6SM BKN230
FM241600 05004KT P6SM SCT150 BKN250
FM241800 15004KT P6SM BKN120
FM250000 VRB03KT P6SM BKN070
FM250500 12005KT P6SM VCSH OVC050
FM251100 15006KT P6SM VCSH OVC025

Example: see airport list